Time;durP1;ratioP1;P1;durP2;ratioP2;P2;SDS_P1;SDS_P2;PMS_P1;PMS_P2;Temp;Humidity;BMP_temperature;BMP_pressure;BME280_temperature;BME280_humidity;BME280_pressure;Samples;Min_cycle;Max_cycle;Signal;HPM_P1;HPM_P2
2022/02/19 00:01:22;;;;;;;35.08;17.85;;;;;;;1.79;77.67;100624.62;1744872;82;20925;-70
2022/02/19 00:03:50;;;;;;;39.15;20.12;;;;;;;1.81;77.66;100642.23;1744637;82;21101;-69
2022/02/19 00:06:19;;;;;;;38.23;18.00;;;;;;;1.82;77.53;100643.95;1744457;82;20905;-72
2022/02/19 00:08:46;;;;;;;37.55;20.68;;;;;;;1.83;77.43;100637.89;1744559;82;21395;-69
2022/02/19 00:11:13;;;;;;;40.80;20.50;;;;;;;1.83;77.47;100637.89;1744569;81;20905;-70
2022/02/19 00:13:40;;;;;;;48.52;23.05;;;;;;;1.82;77.52;100638.78;1744485;82;20996;-71
2022/02/19 00:16:08;;;;;;;42.67;22.52;;;;;;;1.84;77.50;100637.44;1744408;81;21538;-70
2022/02/19 00:18:35;;;;;;;41.40;20.92;;;;;;;1.84;77.48;100634.85;1744505;80;20909;-70
2022/02/19 00:21:04;;;;;;;41.60;22.93;;;;;;;1.84;77.58;100642.61;1744607;82;21003;-70
2022/02/19 00:23:31;;;;;;;43.13;23.87;;;;;;;1.84;77.63;100648.62;1744413;82;20960;-70
2022/02/19 00:25:58;;;;;;;41.35;22.52;;;;;;;1.84;77.60;100652.95;1744462;80;20901;-70
2022/02/19 00:28:25;;;;;;;33.00;18.20;;;;;;;1.85;77.58;100652.92;1744570;82;21464;-69
2022/02/19 00:30:52;;;;;;;30.95;17.62;;;;;;;1.83;77.45;100657.28;1744429;82;20916;-69
2022/02/19 00:33:23;;;;;;;29.12;16.20;;;;;;;1.82;77.37;100657.30;1744400;82;20976;-69
2022/02/19 00:35:49;;;;;;;25.25;14.58;;;;;;;1.80;77.36;100659.95;1744494;82;20913;-70
2022/02/19 00:38:17;;;;;;;23.80;13.70;;;;;;;1.77;77.32;100652.24;1744732;82;20849;-71
2022/02/19 00:40:45;;;;;;;25.27;13.58;;;;;;;1.74;77.26;100657.50;1744464;82;21398;-69
2022/02/19 00:43:12;;;;;;;21.87;13.13;;;;;;;1.71;77.27;100669.62;1744562;82;20893;-71
2022/02/19 00:45:39;;;;;;;23.15;12.93;;;;;;;1.66;77.30;100663.27;1744685;82;20976;-70
2022/02/19 00:48:06;;;;;;;18.90;11.33;;;;;;;1.62;77.40;100666.80;1744839;80;21362;-71
2022/02/19 00:50:33;;;;;;;20.45;12.65;;;;;;;1.58;77.54;100669.92;1744855;81;20892;-72
2022/02/19 00:53:02;;;;;;;21.23;12.63;;;;;;;1.56;77.68;100669.55;1744589;81;20885;-71
2022/02/19 00:55:30;;;;;;;20.02;13.75;;;;;;;1.53;77.85;100667.02;1744407;81;21437;-71
2022/02/19 00:57:57;;;;;;;23.45;14.87;;;;;;;1.51;78.02;100676.53;1744435;82;21008;-71
2022/02/19 01:00:24;;;;;;;22.95;14.53;;;;;;;1.49;78.10;100686.92;1744422;81;20901;-70
2022/02/19 01:02:53;;;;;;;20.10;14.93;;;;;;;1.48;78.21;100682.62;1697714;81;21372;-70
2022/02/19 01:05:21;;;;;;;24.95;13.78;;;;;;;1.46;78.31;100676.63;1744621;81;21735;-71
2022/02/19 01:07:48;;;;;;;31.37;16.65;;;;;;;1.45;78.40;100680.95;1744353;82;20928;-70
2022/02/19 01:10:15;;;;;;;24.70;15.28;;;;;;;1.45;78.49;100673.20;1744706;82;20916;-71
2022/02/19 01:12:43;;;;;;;22.93;15.15;;;;;;;1.47;78.59;100675.77;1744583;81;21393;-70
2022/02/19 01:15:11;;;;;;;23.07;13.83;;;;;;;1.47;78.70;100679.64;1749130;80;20971;-70
2022/02/19 01:17:39;;;;;;;23.47;14.33;;;;;;;1.49;78.75;100680.87;1757871;81;21137;-71
2022/02/19 01:20:11;;;;;;;23.02;12.85;;;;;;;1.50;78.80;100681.30;1758062;81;20900;-70
2022/02/19 01:22:42;;;;;;;21.15;12.18;;;;;;;1.50;78.81;100684.73;1757842;80;20979;-70
2022/02/19 01:25:12;;;;;;;19.98;11.83;;;;;;;1.51;78.77;100682.99;1758237;81;20901;-71
2022/02/19 01:27:40;;;;;;;23.27;13.72;;;;;;;1.52;78.79;100685.55;1757514;81;20971;-71
2022/02/19 01:30:08;;;;;;;20.50;13.65;;;;;;;1.54;78.75;100690.70;1758150;80;21517;-70
2022/02/19 01:32:36;;;;;;;23.62;14.40;;;;;;;1.54;78.77;100694.58;1757674;80;20971;-70
2022/02/19 01:35:05;;;;;;;21.70;14.98;;;;;;;1.55;78.81;100700.14;1757914;80;20884;-69
2022/02/19 01:37:31;;;;;;;23.15;13.90;;;;;;;1.55;78.75;100702.27;1757755;81;20916;-69
2022/02/19 01:39:59;;;;;;;22.73;13.95;;;;;;;1.55;78.56;100703.56;1757808;81;20936;-69
2022/02/19 01:42:27;;;;;;;23.47;15.13;;;;;;;1.53;78.14;100706.62;1757824;81;21123;-69
2022/02/19 01:44:54;;;;;;;24.05;13.18;;;;;;;1.51;78.30;100700.63;1757956;81;21488;-69
2022/02/19 01:47:20;;;;;;;18.57;13.05;;;;;;;1.50;78.63;100704.56;1757997;81;20936;-70
2022/02/19 01:49:47;;;;;;;18.57;12.13;;;;;;;1.49;78.81;100714.47;1758010;80;21504;-69
2022/02/19 01:52:17;;;;;;;18.80;12.88;;;;;;;1.48;78.90;100715.37;1757891;80;21340;-70
2022/02/19 01:54:45;;;;;;;21.27;13.40;;;;;;;1.47;78.94;100713.66;1757757;81;21144;-70
2022/02/19 01:57:14;;;;;;;21.95;12.58;;;;;;;1.45;78.77;100713.25;1738353;81;20932;-70
2022/02/19 01:59:42;;;;;;;17.45;12.15;;;;;;;1.42;78.06;100724.09;1755239;81;20853;-71
2022/02/19 02:02:16;;;;;;;15.93;11.28;;;;;;;1.38;78.06;100726.31;1756166;81;21570;-70
2022/02/19 02:04:57;;;;;;;13.95;10.35;;;;;;;1.33;78.17;100722.53;1741102;81;20850;-70
2022/02/19 02:07:24;;;;;;;15.20;11.38;;;;;;;1.30;78.45;100721.32;1757759;81;21184;-72
2022/02/19 02:09:51;;;;;;;14.13;10.45;;;;;;;1.27;78.70;100730.44;1757834;81;20959;-70
2022/02/19 02:12:19;;;;;;;15.00;10.00;;;;;;;1.27;78.95;100727.85;1757752;80;20872;-70
2022/02/19 02:14:51;;;;;;;13.38;10.10;;;;;;;1.28;79.05;100731.28;1748666;81;20935;-71
2022/02/19 02:17:20;;;;;;;12.78;10.10;;;;;;;1.29;79.23;100735.55;1744364;81;20928;-71
2022/02/19 02:19:47;;;;;;;16.87;12.33;;;;;;;1.28;79.29;100741.61;1744400;82;21152;-70
2022/02/19 02:22:18;;;;;;;17.00;10.30;;;;;;;1.28;79.27;100741.61;1744413;81;20901;-72
2022/02/19 02:24:45;;;;;;;14.13;10.48;;;;;;;1.27;79.27;100747.64;1744695;82;21007;-72
2022/02/19 02:27:14;;;;;;;16.55;10.50;;;;;;;1.26;79.34;100744.66;1743865;81;20932;-68
2022/02/19 02:29:47;;;;;;;13.55;10.00;;;;;;;1.25;79.33;100745.11;1744393;82;20858;-70
2022/02/19 02:32:15;;;;;;;18.85;11.73;;;;;;;1.21;79.05;100748.18;1744605;81;21430;-71
2022/02/19 02:34:51;;;;;;;17.95;11.83;;;;;;;1.21;79.13;100748.63;1744667;82;20850;-71
2022/02/19 02:37:19;;;;;;;13.48;10.35;;;;;;;1.20;79.36;100746.50;1744624;81;20953;-69
2022/02/19 02:39:51;;;;;;;25.02;13.72;;;;;;;1.20;79.18;100750.78;1744941;82;20861;-69
2022/02/19 02:42:16;;;;;;;15.63;10.88;;;;;;;1.17;78.89;100757.31;1733205;82;20889;-69
2022/02/19 02:44:43;;;;;;;17.00;10.98;;;;;;;1.15;79.11;100758.63;1744583;82;21167;-70
2022/02/19 02:47:11;;;;;;;19.42;10.93;;;;;;;1.15;79.45;100759.91;1734038;82;20905;-71
2022/02/19 02:49:38;;;;;;;15.30;10.78;;;;;;;1.14;79.69;100760.81;1744882;81;21481;-70
2022/02/19 02:52:09;;;;;;;15.43;10.68;;;;;;;1.13;79.81;100765.99;1744516;81;20857;-70
2022/02/19 02:54:37;;;;;;;18.05;11.12;;;;;;;1.13;79.95;100773.30;1744812;82;21045;-70
2022/02/19 02:57:04;;;;;;;16.85;10.63;;;;;;;1.12;79.99;100777.22;1744533;82;22011;-69
2022/02/19 02:59:32;;;;;;;13.20;10.15;;;;;;;1.09;80.05;100779.42;1744445;82;20893;-71
2022/02/19 03:02:00;;;;;;;19.02;11.48;;;;;;;1.09;80.16;100764.34;1744563;81;20976;-72
2022/02/19 03:04:26;;;;;;;13.10;9.43;;;;;;;1.08;80.22;100775.13;1744814;82;20909;-71
2022/02/19 03:06:55;;;;;;;12.80;8.68;;;;;;;1.07;80.34;100776.02;1744730;81;21343;-71
2022/02/19 03:09:23;;;;;;;15.15;10.20;;;;;;;1.08;80.43;100782.02;1744850;82;21501;-71
2022/02/19 03:11:50;;;;;;;12.93;9.03;;;;;;;1.06;80.52;100774.30;1744601;82;21042;-71
2022/02/19 03:14:17;;;;;;;15.20;10.40;;;;;;;1.06;80.58;100778.61;1744535;81;20948;-70
2022/02/19 03:16:45;;;;;;;12.88;8.80;;;;;;;1.05;80.64;100773.05;1744449;81;20925;-69
2022/02/19 03:19:12;;;;;;;14.50;9.05;;;;;;;1.05;80.72;100779.06;1744532;82;20979;-71
2022/02/19 03:21:39;;;;;;;16.35;11.38;;;;;;;1.03;80.86;100779.08;1744530;81;21991;-71
2022/02/19 03:24:06;;;;;;;14.80;9.38;;;;;;;1.02;80.93;100774.81;1744495;82;20892;-71
2022/02/19 03:26:34;;;;;;;8.33;7.42;;;;;;;1.01;81.01;100775.67;1744566;81;21439;-71
2022/02/19 03:29:03;;;;;;;11.80;7.92;;;;;;;1.01;81.08;100780.84;1708450;83;20908;-73
2022/02/19 03:31:31;;;;;;;9.98;8.03;;;;;;;1.00;81.11;100771.81;1709143;84;20951;-69
2022/02/19 03:34:00;;;;;;;12.47;8.33;;;;;;;0.99;81.11;100774.00;1743349;81;21222;-71
2022/02/19 03:36:29;;;;;;;8.85;6.95;;;;;;;0.97;81.12;100774.47;1744511;82;20972;-69
2022/02/19 03:38:56;;;;;;;10.38;7.72;;;;;;;0.98;81.17;100770.58;1744518;81;20897;-70
2022/02/19 03:41:26;;;;;;;10.60;8.33;;;;;;;0.99;81.24;100760.64;1744733;82;20956;-71
2022/02/19 03:43:55;;;;;;;8.73;7.47;;;;;;;1.00;81.30;100767.53;1744824;82;20873;-73
2022/02/19 03:46:22;;;;;;;11.53;7.15;;;;;;;1.03;81.40;100765.33;1744467;80;21149;-71
2022/02/19 03:48:52;;;;;;;13.62;8.35;;;;;;;1.06;81.37;100769.13;1744541;81;20849;-70
2022/02/19 03:51:20;;;;;;;11.70;7.87;;;;;;;1.06;81.41;100766.55;1744783;81;20940;-71
2022/02/19 03:53:47;;;;;;;12.93;6.60;;;;;;;1.07;81.44;100768.27;1744536;82;20980;-71
2022/02/19 03:56:16;;;;;;;7.80;7.00;;;;;;;1.08;81.37;100760.08;1708974;83;20896;-71
2022/02/19 03:58:45;;;;;;;7.67;6.87;;;;;;;1.07;81.37;100753.19;1708738;82;21421;-70
2022/02/19 04:01:12;;;;;;;10.82;7.67;;;;;;;1.08;81.40;100759.63;1708770;84;20940;-71
2022/02/19 04:03:39;;;;;;;12.82;7.83;;;;;;;1.10;81.32;100755.28;1708764;84;20944;-70
2022/02/19 04:06:07;;;;;;;8.90;8.00;;;;;;;1.10;81.14;100757.87;1708697;84;21480;-71
2022/02/19 04:08:34;;;;;;;13.32;8.20;;;;;;;1.10;80.94;100762.19;1708837;84;20916;-69
2022/02/19 04:11:03;;;;;;;10.75;7.35;;;;;;;1.09;80.78;100764.34;1708830;82;20955;-70
2022/02/19 04:13:31;;;;;;;11.63;9.00;;;;;;;1.10;80.64;100759.61;1708638;84;20928;-70
2022/02/19 04:16:06;;;;;;;10.48;8.00;;;;;;;1.07;80.61;100757.06;1748803;81;28026;-71
2022/02/19 04:18:36;;;;;;;11.93;7.75;;;;;;;1.07;80.37;100754.06;1721795;82;20935;-70
2022/02/19 04:21:03;;;;;;;9.65;7.67;;;;;;;1.04;80.21;100748.94;1721862;83;20950;-71
2022/02/19 04:23:30;;;;;;;12.98;9.05;;;;;;;0.99;80.04;100751.61;1721815;83;21433;-71
2022/02/19 04:25:58;;;;;;;8.48;7.28;;;;;;;0.95;79.99;100756.41;1721294;83;20947;-74
2022/02/19 04:28:27;;;;;;;10.32;8.48;;;;;;;0.89;80.20;100753.96;1721421;83;20912;-71
2022/02/19 04:30:55;;;;;;;10.43;7.58;;;;;;;0.87;80.24;100753.14;1721691;82;20915;-71
2022/02/19 04:33:22;;;;;;;10.35;8.08;;;;;;;0.87;80.30;100769.92;1721746;83;21421;-71
2022/02/19 04:35:51;;;;;;;12.35;7.50;;;;;;;0.87;80.33;100775.08;1721796;83;21177;-72
2022/02/19 04:38:21;;;;;;;9.88;8.10;;;;;;;0.86;80.43;100775.94;1721786;83;21013;-71
2022/02/19 04:40:47;;;;;;;14.47;9.33;;;;;;;0.83;80.35;100779.44;1721634;83;20939;-73
2022/02/19 04:43:13;;;;;;;11.53;7.80;;;;;;;0.82;80.46;100781.61;1721985;83;20951;-72
2022/02/19 04:45:43;;;;;;;16.20;9.80;;;;;;;0.82;80.46;100775.58;1721750;82;20928;-72
2022/02/19 04:48:11;;;;;;;11.88;9.53;;;;;;;0.81;80.44;100776.47;1721932;83;21582;-71
2022/02/19 04:50:40;;;;;;;14.83;10.20;;;;;;;0.78;80.42;100778.67;1721824;83;20942;-72
2022/02/19 04:53:08;;;;;;;14.23;10.43;;;;;;;0.74;80.49;100774.44;1703992;84;21031;-73
2022/02/19 04:55:36;;;;;;;16.42;10.68;;;;;;;0.71;80.54;100782.23;1703604;84;20984;-72
2022/02/19 04:58:05;;;;;;;12.95;8.53;;;;;;;0.67;80.65;100782.29;1721044;82;20931;-69
2022/02/19 05:00:34;;;;;;;10.10;9.00;;;;;;;0.65;80.87;100791.37;1721695;83;21576;-70
2022/02/19 05:03:15;;;;;;;13.08;9.83;;;;;;;0.63;81.00;100792.27;1634889;86;21464;-70
2022/02/19 05:05:44;;;;;;;11.03;8.75;;;;;;;0.59;81.13;100794.88;1667206;84;20919;-73
2022/02/19 05:08:11;;;;;;;12.47;9.35;;;;;;;0.58;81.31;100800.09;1667372;86;21176;-69
2022/02/19 05:10:39;;;;;;;10.55;9.25;;;;;;;0.55;81.43;100797.54;1667319;85;21010;-71
2022/02/19 05:13:08;;;;;;;12.30;8.48;;;;;;;0.52;81.50;100807.92;1667350;85;21062;-71
2022/02/19 05:15:35;;;;;;;11.75;9.05;;;;;;;0.49;81.56;100809.23;1667258;85;21430;-71
2022/02/19 05:18:08;;;;;;;13.72;9.58;;;;;;;0.46;81.66;100819.17;1622040;87;20955;-70
2022/02/19 05:20:38;;;;;;;17.55;10.08;;;;;;;0.43;81.69;100816.65;1621675;87;20950;-71
2022/02/19 05:23:05;;;;;;;15.25;10.82;;;;;;;0.40;81.79;100812.39;1621425;88;20888;-71
2022/02/19 05:25:31;;;;;;;14.90;9.33;;;;;;;0.38;81.90;100816.72;1621647;87;21144;-71
2022/02/19 05:27:59;;;;;;;14.90;10.45;;;;;;;0.37;82.09;100825.77;1621579;87;21705;-72
2022/02/19 05:30:26;;;;;;;13.98;10.80;;;;;;;0.36;82.24;100827.50;1621948;87;20926;-69
2022/02/19 05:32:58;;;;;;;17.02;11.18;;;;;;;0.36;82.35;100828.78;1592019;87;20970;-70
2022/02/19 05:35:26;;;;;;;12.78;9.28;;;;;;;0.38;82.57;100834.78;1622106;87;21535;-71
2022/02/19 05:37:54;;;;;;;13.68;9.33;;;;;;;0.42;82.64;100842.02;1621594;87;21103;-70
2022/02/19 05:40:21;;;;;;;12.28;9.28;;;;;;;0.44;82.74;100841.56;1716854;82;20887;-71
2022/02/19 05:42:48;;;;;;;14.73;9.50;;;;;;;0.48;82.86;100843.22;1719861;83;20934;-69
2022/02/19 05:45:19;;;;;;;21.82;10.35;;;;;;;0.62;83.09;100845.59;1715863;82;20942;-69
2022/02/19 05:47:49;;;;;;;14.60;9.30;;;;;;;1.08;83.53;100843.55;1719829;83;21471;-71
2022/02/19 05:50:23;;;;;;;15.40;10.93;;;;;;;1.60;82.66;100841.33;1718902;83;22157;-71
2022/02/19 05:52:52;;;;;;;14.75;11.90;;;;;;;2.03;80.99;100848.65;1718784;82;20958;-72
2022/02/19 05:55:21;;;;;;;13.85;10.90;;;;;;;2.31;79.81;100851.92;1718467;82;20923;-71
2022/02/19 05:57:49;;;;;;;15.08;10.75;;;;;;;2.61;78.75;100850.39;1719796;82;21523;-71
2022/02/19 06:00:16;;;;;;;12.50;9.53;;;;;;;3.05;77.82;100849.76;1719792;83;20851;-72
2022/02/19 06:02:43;;;;;;;16.42;11.12;;;;;;;3.59;76.12;100845.30;1719983;82;21557;-70
2022/02/19 06:05:10;;;;;;;19.02;10.60;;;;;;;4.17;74.35;100847.97;1720071;82;21428;-72
2022/02/19 06:07:41;;;;;;;16.77;10.80;;;;;;;4.74;72.53;100854.86;1719947;83;20880;-71
2022/02/19 06:10:09;;;;;;;14.15;10.58;;;;;;;5.32;70.43;100863.77;1719844;83;20938;-71
2022/02/19 06:12:37;;;;;;;14.15;9.60;;;;;;;5.80;68.19;100854.27;1719870;83;21583;-71
2022/02/19 06:15:18;;;;;;;12.53;10.45;;;;;;;6.25;66.72;100856.55;1719641;83;21175;-72
2022/02/19 06:18:04;;;;;;;14.63;10.88;;;;;;;6.71;64.75;100856.06;1741350;81;20846;-71
2022/02/19 06:20:32;;;;;;;14.78;11.93;;;;;;;7.11;63.17;100862.25;1744630;81;21057;-70
2022/02/19 06:23:01;;;;;;;17.07;10.80;;;;;;;7.46;62.02;100862.91;1744570;81;20988;-70
2022/02/19 06:25:29;;;;;;;12.20;9.90;;;;;;;7.81;60.97;100873.58;1744710;80;20964;-71
2022/02/19 06:27:58;;;;;;;13.95;10.90;;;;;;;8.11;59.62;100867.87;1708698;83;21528;-71
2022/02/19 06:31:21;;;;;;;21.17;13.08;;;;;;;8.50;58.05;100863.06;1816286;79;23187;-73
2022/02/19 06:33:49;;;;;;;15.28;10.88;;;;;;;8.66;57.68;100864.02;1789226;80;21002;-70
2022/02/19 06:36:18;;;;;;;10.25;9.13;;;;;;;8.88;56.86;100868.22;1789389;80;22025;-72
2022/02/19 06:38:47;;;;;;;12.33;9.58;;;;;;;9.11;56.02;100863.14;1789227;80;20853;-72
2022/02/19 06:41:15;;;;;;;14.05;10.10;;;;;;;9.26;55.12;100872.00;1789579;80;20860;-72
2022/02/19 06:43:45;;;;;;;15.58;11.73;;;;;;;9.32;54.54;100856.84;1786695;79;20868;-69
2022/02/19 06:46:13;;;;;;;15.80;12.30;;;;;;;8.98;54.51;100868.59;1789378;80;20895;-71
2022/02/19 06:48:40;;;;;;;16.05;13.45;;;;;;;8.34;55.39;100864.22;1789446;80;21943;-71
2022/02/19 06:51:08;;;;;;;20.77;14.10;;;;;;;7.68;56.75;100858.06;1789240;80;20999;-70
2022/02/19 06:53:37;;;;;;;16.82;13.53;;;;;;;7.05;58.25;100855.55;1789279;80;20876;-71
2022/02/19 06:56:04;;;;;;;25.35;15.95;;;;;;;6.56;59.76;100851.03;1789461;80;20912;-70
2022/02/19 06:58:31;;;;;;;19.30;14.55;;;;;;;6.04;61.11;100843.91;1789408;80;21413;-70
2022/02/19 07:01:00;;;;;;;21.57;15.50;;;;;;;5.59;62.71;100842.91;1789518;80;21441;-70
2022/02/19 07:03:27;;;;;;;15.48;12.20;;;;;;;5.16;64.14;100840.05;1789374;80;21146;-70
2022/02/19 07:05:55;;;;;;;16.48;11.57;;;;;;;4.84;65.37;100839.81;1788825;80;20888;-70
2022/02/19 07:08:31;;;;;;;19.80;13.13;;;;;;;4.56;66.60;100851.55;1788974;80;21535;-71
2022/02/19 07:10:58;;;;;;;15.65;12.07;;;;;;;4.34;67.55;100850.91;1789309;80;21002;-71
2022/02/19 07:13:26;;;;;;;15.48;12.23;;;;;;;4.21;68.16;100848.73;1789268;80;21192;-71
2022/02/19 07:15:55;;;;;;;16.10;10.50;;;;;;;4.12;68.89;100853.75;1789346;80;20967;-73
2022/02/19 07:18:26;;;;;;;19.50;11.48;;;;;;;4.05;69.46;100851.78;1786164;80;21294;-71
2022/02/19 07:21:05;;;;;;;16.77;10.68;;;;;;;3.99;70.04;100856.30;1789441;80;20884;-73
2022/02/19 07:23:32;;;;;;;16.75;11.22;;;;;;;3.93;70.61;100856.89;1789326;80;20939;-72
2022/02/19 07:26:00;;;;;;;16.07;11.22;;;;;;;3.89;70.88;100852.67;1789466;80;21437;-71
2022/02/19 07:28:29;;;;;;;20.55;13.22;;;;;;;3.86;71.27;100855.79;1789642;80;21511;-73
2022/02/19 07:30:55;;;;;;;17.35;11.70;;;;;;;3.84;71.54;100856.28;1779897;80;21390;-72
2022/02/19 07:33:23;;;;;;;16.15;12.28;;;;;;;3.78;71.80;100857.32;1775742;80;20881;-73
2022/02/19 07:35:52;;;;;;;24.15;11.95;;;;;;;3.74;72.22;100866.92;1775398;80;20885;-74
2022/02/19 07:38:21;;;;;;;20.62;13.13;;;;;;;3.72;72.64;100864.81;1775795;80;21519;-76
2022/02/19 07:40:50;;;;;;;24.92;14.80;;;;;;;3.76;72.97;100864.71;1775646;80;20983;-74
2022/02/19 07:43:20;;;;;;;20.50;13.83;;;;;;;3.79;73.05;100859.45;1775168;80;20968;-72
2022/02/19 07:46:02;;;;;;;22.70;14.85;;;;;;;3.83;73.20;100859.78;1704874;80;21382;-73
2022/02/19 07:48:34;;;;;;;21.82;14.23;;;;;;;3.88;73.27;100850.11;1723061;80;20983;-72
2022/02/19 07:59:49;;;;;;;22.35;15.32;;;;;;;4.14;72.82;100823.41;1775527;80;22292;-72
2022/02/19 08:02:16;;;;;;;28.70;16.90;;;;;;;4.19;72.88;100821.97;1775406;80;21322;-72
2022/02/19 08:04:44;;;;;;;30.15;15.32;;;;;;;4.23;72.74;100821.83;1775389;80;21567;-73
2022/02/19 08:07:11;;;;;;;27.65;15.78;;;;;;;4.30;72.67;100811.66;1753190;80;21473;-72
2022/02/19 08:09:39;;;;;;;25.20;13.55;;;;;;;4.37;72.57;100820.10;1775512;80;21464;-73
2022/02/19 08:12:08;;;;;;;22.13;13.10;;;;;;;4.44;72.49;100809.91;1753489;80;20904;-72
2022/02/19 08:14:36;;;;;;;24.80;11.60;;;;;;;4.53;72.46;100820.01;1775842;80;21371;-72
2022/02/19 08:17:04;;;;;;;19.82;11.95;;;;;;;4.65;72.00;100826.58;1775125;80;21564;-69
2022/02/19 08:19:31;;;;;;;23.18;10.93;;;;;;;4.76;71.97;100827.08;1775067;80;20940;-72
2022/02/19 08:22:00;;;;;;;17.90;10.75;;;;;;;4.95;71.72;100830.36;1775216;80;21397;-71
2022/02/19 08:24:27;;;;;;;20.30;10.35;;;;;;;5.14;70.95;100837.11;1775594;80;20876;-72
2022/02/19 08:26:53;;;;;;;19.15;10.30;;;;;;;5.32;70.20;100835.17;1775204;80;20892;-71
2022/02/19 08:29:20;;;;;;;17.82;11.12;;;;;;;5.52;69.76;100833.16;1775605;80;22102;-72
2022/02/19 08:31:48;;;;;;;13.93;10.45;;;;;;;5.77;69.16;100833.13;1775273;80;20869;-73
2022/02/19 08:34:15;;;;;;;15.85;9.93;;;;;;;6.00;68.49;100834.05;1775217;80;20885;-74
2022/02/19 08:36:42;;;;;;;14.47;8.05;;;;;;;6.17;68.06;100832.96;1775285;80;20956;-73
2022/02/19 08:39:09;;;;;;;13.75;8.43;;;;;;;6.30;67.31;100824.69;1775140;80;21046;-73
2022/02/19 08:41:35;;;;;;;11.97;7.97;;;;;;;6.33;66.47;100825.86;1775095;80;21143;-76
2022/02/19 08:44:02;;;;;;;7.75;6.42;;;;;;;6.36;66.65;100830.97;1775360;80;20972;-73
2022/02/19 08:46:30;;;;;;;14.43;7.12;;;;;;;6.39;66.34;100828.23;1775222;80;20944;-75
2022/02/19 08:48:57;;;;;;;9.38;7.00;;;;;;;6.36;66.45;100834.41;1775115;80;21053;-72
2022/02/19 08:51:24;;;;;;;14.50;7.28;;;;;;;6.36;66.50;100834.41;1775483;80;20881;-71
2022/02/19 08:53:51;;;;;;;13.10;6.75;;;;;;;6.35;66.46;100834.47;1775230;80;21532;-69
2022/02/19 08:56:18;;;;;;;9.45;6.80;;;;;;;6.34;66.46;100825.81;1775325;80;21010;-72
2022/02/19 08:58:45;;;;;;;10.30;6.47;;;;;;;6.36;66.47;100827.06;1775441;80;20928;-72
2022/02/19 09:01:12;;;;;;;14.43;7.33;;;;;;;6.39;66.21;100832.98;1775365;80;21471;-71
2022/02/19 09:03:40;;;;;;;7.75;5.75;;;;;;;6.38;65.78;100827.83;1775265;80;20932;-73
2022/02/19 09:06:07;;;;;;;10.48;6.35;;;;;;;6.36;65.91;100833.11;1775406;80;22143;-73
2022/02/19 09:08:33;;;;;;;13.13;7.30;;;;;;;6.33;65.92;100838.42;1775095;80;20893;-72
2022/02/19 09:11:01;;;;;;;9.55;6.28;;;;;;;6.28;65.78;100839.53;1775075;80;20889;-72
2022/02/19 09:13:27;;;;;;;11.18;7.10;;;;;;;6.23;65.96;100839.70;1775093;80;20888;-71
2022/02/19 09:15:54;;;;;;;9.70;7.05;;;;;;;6.25;66.17;100848.31;1775606;80;20892;-72
2022/02/19 09:18:21;;;;;;;7.65;5.90;;;;;;;6.31;66.11;100855.02;1775075;80;21973;-71
2022/02/19 09:20:48;;;;;;;9.73;6.15;;;;;;;6.38;66.04;100857.34;1775357;80;20979;-76
2022/02/19 09:23:15;;;;;;;11.25;5.47;;;;;;;6.47;65.91;100860.48;1775336;80;20936;-71
2022/02/19 09:25:42;;;;;;;12.13;6.33;;;;;;;6.54;65.50;100852.38;1775530;80;20948;-71
2022/02/19 09:28:09;;;;;;;8.65;5.33;;;;;;;6.62;65.48;100861.19;1775199;80;20975;-71
2022/02/19 09:30:36;;;;;;;9.18;5.83;;;;;;;6.72;65.22;100854.70;1775133;80;22053;-73
2022/02/19 09:33:03;;;;;;;7.12;5.45;;;;;;;6.81;64.98;100858.70;1775208;80;21501;-72
2022/02/19 09:35:30;;;;;;;10.48;5.62;;;;;;;6.90;64.92;100850.97;1775139;80;20936;-72
2022/02/19 09:37:57;;;;;;;7.03;5.75;;;;;;;6.98;64.87;100847.13;1775367;80;20920;-71
2022/02/19 09:40:24;;;;;;;6.58;5.45;;;;;;;7.09;64.44;100847.13;1775244;80;21473;-71
2022/02/19 09:42:51;;;;;;;9.43;6.15;;;;;;;7.21;64.35;100845.32;1775129;80;22008;-70
2022/02/19 09:45:18;;;;;;;9.53;5.85;;;;;;;7.41;64.27;100847.08;1774985;80;20873;-73
2022/02/19 09:47:45;;;;;;;10.20;6.20;;;;;;;7.62;63.44;100847.42;1775165;80;20952;-71
2022/02/19 09:50:12;;;;;;;7.58;6.37;;;;;;;7.79;62.83;100844.55;1775052;80;20900;-72
2022/02/19 09:52:39;;;;;;;7.05;5.58;;;;;;;7.88;62.27;100842.35;1775123;80;20932;-72
2022/02/19 09:55:07;;;;;;;5.70;4.87;;;;;;;7.97;61.91;100842.40;1775216;80;22722;-71
2022/02/19 09:57:34;;;;;;;7.08;4.85;;;;;;;8.01;61.40;100837.89;1775188;80;21343;-78
2022/02/19 10:00:02;;;;;;;6.12;4.17;;;;;;;8.02;60.95;100848.25;1774999;80;20888;-71
2022/02/19 10:02:31;;;;;;;8.13;4.55;;;;;;;8.05;60.77;100857.73;1775202;80;20917;-70
2022/02/19 10:05:15;;;;;;;7.12;4.50;;;;;;;8.06;60.52;100860.72;1775188;80;21349;-69
2022/02/19 10:07:46;;;;;;;9.03;4.75;;;;;;;8.05;59.99;100836.84;1775273;80;20865;-71
2022/02/19 10:10:26;;;;;;;7.08;5.20;;;;;;;8.06;60.15;100808.02;1775060;80;20920;-70
2022/02/19 10:12:53;;;;;;;9.10;4.67;;;;;;;8.09;59.77;100800.06;1775213;80;20967;-69
2022/02/19 10:15:22;;;;;;;9.73;5.25;;;;;;;8.17;59.12;100790.55;1775082;80;21403;-72
2022/02/19 10:17:52;;;;;;;10.93;5.78;;;;;;;8.18;59.18;100776.58;1775104;80;20908;-71
2022/02/19 10:20:20;;;;;;;8.33;4.40;;;;;;;8.17;58.85;100771.42;1775086;80;21548;-70
2022/02/19 10:22:52;;;;;;;12.05;7.20;;;;;;;8.13;58.91;100775.09;1775104;80;20983;-69
2022/02/19 10:25:24;;;;;;;9.00;5.90;;;;;;;8.06;59.12;100779.29;1775145;80;20920;-71
2022/02/19 10:28:07;;;;;;;8.75;4.83;;;;;;;7.99;59.10;100777.05;1775409;80;20967;-72
2022/02/19 10:30:34;;;;;;;7.25;4.33;;;;;;;7.87;58.95;100781.09;1774857;80;20972;-71
2022/02/19 10:33:07;;;;;;;7.47;4.65;;;;;;;7.75;59.09;100783.78;1775174;80;21875;-71
2022/02/19 10:35:41;;;;;;;6.53;4.97;;;;;;;7.66;59.34;100778.52;1775013;80;20853;-71
2022/02/19 10:38:14;;;;;;;7.83;5.00;;;;;;;7.59;59.58;100768.44;1775086;80;20887;-69
2022/02/19 10:40:52;;;;;;;7.05;4.70;;;;;;;7.54;59.91;100762.13;1775170;80;20900;-71
2022/02/19 10:43:31;;;;;;;6.70;5.25;;;;;;;7.52;59.66;100770.94;1775356;80;20936;-70
2022/02/19 10:46:04;;;;;;;7.03;5.17;;;;;;;7.48;59.81;100767.14;1775075;80;21171;-73
2022/02/19 10:48:38;;;;;;;8.10;5.40;;;;;;;7.49;59.80;100761.46;1775324;80;28501;-70
2022/02/19 10:51:18;;;;;;;6.47;4.60;;;;;;;7.48;60.15;100768.45;1775045;80;20932;-68
2022/02/19 10:53:59;;;;;;;8.55;5.15;;;;;;;7.51;60.04;100768.77;1775210;80;21355;-70
2022/02/19 10:56:29;;;;;;;12.03;4.90;;;;;;;7.52;60.29;100757.89;1775318;80;20881;-72
2022/02/19 10:59:17;;;;;;;7.72;5.42;;;;;;;7.52;60.17;100742.23;1753418;80;21458;-70
2022/02/19 11:01:53;;;;;;;9.23;5.28;;;;;;;7.51;59.96;100737.45;1775262;80;20974;-71
2022/02/19 11:04:21;;;;;;;8.25;5.67;;;;;;;7.51;60.04;100735.31;1775092;80;20857;-70
2022/02/19 11:06:52;;;;;;;9.33;5.83;;;;;;;7.50;60.19;100724.50;1775313;80;20987;-72
2022/02/19 11:09:23;;;;;;;10.53;6.92;;;;;;;7.46;60.31;100719.39;1774856;80;20987;-71
2022/02/19 11:11:53;;;;;;;17.48;6.65;;;;;;;7.46;60.28;100716.78;1775422;80;21119;-71
2022/02/19 11:14:24;;;;;;;8.65;5.67;;;;;;;7.45;60.09;100711.66;1775020;80;20924;-71
2022/02/19 11:16:52;;;;;;;8.68;5.40;;;;;;;7.42;60.24;100710.02;1775081;80;20927;-71
2022/02/19 11:19:20;;;;;;;8.48;5.45;;;;;;;7.40;60.56;100712.30;1775260;80;20919;-71
2022/02/19 11:21:49;;;;;;;9.75;4.28;;;;;;;7.42;60.84;100720.91;1775592;80;21408;-71
2022/02/19 11:24:18;;;;;;;13.22;6.85;;;;;;;7.44;61.04;100713.41;1775214;80;21163;-74
2022/02/19 11:26:47;;;;;;;10.60;6.10;;;;;;;7.48;61.26;100708.44;1775479;79;20903;-72
2022/02/19 11:29:20;;;;;;;7.22;5.12;;;;;;;7.55;60.43;100707.70;1775200;79;20876;-70
2022/02/19 11:31:49;;;;;;;8.38;5.15;;;;;;;7.60;60.20;100708.78;1775355;80;20892;-71
2022/02/19 11:34:23;;;;;;;7.92;5.42;;;;;;;7.63;60.02;100700.37;1775251;80;20948;-71
2022/02/19 11:36:52;;;;;;;9.93;5.20;;;;;;;7.67;59.82;100693.25;1775604;80;21389;-70
2022/02/19 11:39:22;;;;;;;9.03;4.95;;;;;;;7.68;59.62;100687.94;1775207;80;20904;-71